| time (UTC) | temp F | wind direction | speed knots | gust knots | rain 1hr in | rain 24hr in | rain mn in | humidity % | barometer mb |
| 20260507072221 | 52 | 180 | 4.3 | 6.1 | 0.00 | 0.00 | 0.00 | 87 | 1022.1 |
| 20260507071221 | 52 | 203 | 2.6 | 3.5 | 0.00 | 0.00 | 0.00 | 87 | 1022.1 |
| 20260507070219 | 52 | 203 | 3.5 | 5.2 | 0.00 | 0.00 | 0.00 | 87 | 1022.0 |
| 20260507065240 | 52 | 203 | 1.7 | 2.6 | 0.00 | 0.00 | 0.00 | 87 | 1022.0 |
| 20260507064300 | 52 | 203 | 3.5 | 5.2 | 0.00 | 0.00 | 0.00 | 87 | 1022.0 |
| 20260507063218 | 52 | 203 | 2.6 | 4.3 | 0.00 | 0.00 | 0.00 | 86 | 1021.9 |
| 20260507062218 | 52 | 180 | 2.6 | 4.3 | 0.00 | 0.00 | 0.00 | 86 | 1021.9 |
| 20260507061238 | 52 | 203 | 2.6 | 4.3 | 0.00 | 0.00 | 0.00 | 86 | 1021.9 |
| 20260507060220 | 52 | 180 | 1.7 | 3.5 | 0.00 | 0.00 | 0.00 | 85 | 1021.9 |
| 20260507055220 | 53 | 203 | 0.9 | 1.7 | 0.00 | 0.00 | 0.00 | 85 | 1022.0 |
| 20260507054220 | 53 | 180 | 0.9 | 2.6 | 0.00 | 0.00 | 0.00 | 84 | 1022.2 |
| 20260507053220 | 53 | 180 | 1.7 | 3.5 | 0.00 | 0.00 | 0.00 | 84 | 1022.2 |
| 20260507052220 | 53 | 203 | 4.3 | 5.2 | 0.00 | 0.00 | 0.00 | 84 | 1022.1 |
| 20260507051219 | 53 | 203 | 1.7 | 4.3 | 0.00 | 0.00 | 0.00 | 83 | 1022.0 |
| 20260507050218 | 54 | 203 | 1.7 | 3.5 | 0.00 | 0.00 | 0.00 | 83 | 1022.0 |
| 20260507045220 | 54 | 180 | 2.6 | 3.5 | 0.00 | 0.00 | 0.00 | 83 | 1022.1 |
| 20260507044219 | 54 | 180 | 3.5 | 5.2 | 0.00 | 0.00 | 0.00 | 82 | 1022.1 |
| 20260507043220 | 54 | 180 | 3.5 | 5.2 | 0.00 | 0.00 | 0.00 | 82 | 1022.2 |
| 20260507042220 | 54 | 158 | 3.5 | 5.2 | 0.00 | 0.00 | 0.00 | 81 | 1022.0 |
| 20260507041240 | 54 | 203 | 1.7 | 3.5 | 0.00 | 0.00 | 0.00 | 81 | 1021.9 |
| 20260507040220 | 55 | 180 | 2.6 | 3.5 | 0.00 | 0.00 | 0.00 | 80 | 1021.8 |
| 20260507035220 | 55 | 180 | 2.6 | 4.3 | 0.00 | 0.00 | 0.00 | 80 | 1021.7 |
| 20260507034220 | 55 | 203 | 1.7 | 2.6 | 0.00 | 0.00 | 0.00 | 79 | 1021.6 |
| 20260507033219 | 55 | 180 | 1.7 | 3.5 | 0.00 | 0.00 | 0.00 | 79 | 1021.7 |
| 20260507032220 | 55 | 180 | 3.5 | 5.2 | 0.00 | 0.00 | 0.00 | 79 | 1021.8 |
| 20260507031219 | 55 | 180 | 2.6 | 5.2 | 0.00 | 0.00 | 0.00 | 79 | 1021.8 |
| 20260507030300 | 55 | 180 | 1.7 | 2.6 | 0.00 | 0.00 | 0.00 | 79 | 1021.7 |
| 20260507025220 | 55 | 180 | 2.6 | 3.5 | 0.00 | 0.00 | 0.00 | 79 | 1021.7 |
| 20260507024220 | 56 | 203 | 1.7 | 3.5 | 0.00 | 0.00 | 0.00 | 79 | 1021.5 |
| 20260507023219 | 56 | 270 | 0.9 | 1.7 | 0.00 | 0.00 | 0.00 | 79 | 1021.5 |
| 20260507022220 | 56 | 180 | 1.7 | 2.6 | 0.00 | 0.00 | 0.00 | 79 | 1021.5 |
| 20260507021219 | 56 | 158 | 1.7 | 3.5 | 0.00 | 0.00 | 0.00 | 78 | 1021.5 |
| 20260507020239 | 56 | 203 | 2.6 | 4.3 | 0.00 | 0.00 | 0.00 | 78 | 1021.5 |
| 20260507015219 | 56 | 203 | 2.6 | 4.3 | 0.00 | 0.00 | 0.00 | 78 | 1021.4 |
| 20260507014219 | 56 | 203 | 3.5 | 5.2 | 0.00 | 0.00 | 0.00 | 78 | 1021.4 |
| 20260507013219 | 56 | 203 | 3.5 | 5.2 | 0.00 | 0.00 | 0.00 | 78 | 1021.5 |
| 20260507012219 | 56 | 158 | 3.5 | 6.1 | 0.00 | 0.00 | 0.00 | 78 | 1021.7 |
| 20260507011219 | 56 | 225 | 2.6 | 5.2 | 0.00 | 0.00 | 0.00 | 79 | 1021.6 |
| 20260507010220 | 56 | 180 | 2.6 | 4.3 | 0.00 | 0.00 | 0.00 | 78 | 1021.6 |
| 20260507005220 | 56 | 158 | 1.7 | 4.3 | 0.00 | 0.00 | 0.00 | 78 | 1021.7 |
| 20260507004219 | 56 | 203 | 2.6 | 3.5 | 0.00 | 0.00 | 0.00 | 78 | 1021.6 |
| 20260507003219 | 56 | 203 | 2.6 | 4.3 | 0.00 | 0.00 | 0.00 | 77 | 1021.5 |
| 20260507002220 | 57 | 203 | 3.5 | 7.0 | 0.00 | 0.00 | 0.00 | 77 | 1021.7 |
| 20260507001219 | 56 | 180 | 2.6 | 4.3 | 0.00 | 0.00 | 0.00 | 77 | 1021.6 |
| 20260507000220 | 56 | 180 | 4.3 | 7.0 | 0.00 | 0.00 | 0.00 | 77 | 1021.7 |
| 20260506235220 | 56 | 203 | 6.1 | 9.6 | 0.00 | 0.00 | 0.00 | 77 | 1021.7 |
| 20260506234219 | 56 | 203 | 6.1 | 7.8 | 0.00 | 0.00 | 0.00 | 76 | 1021.7 |
| 20260506233219 | 56 | 203 | 2.6 | 5.2 | 0.00 | 0.00 | 0.00 | 76 | 1021.8 |
| 20260506232220 | 56 | 180 | 2.6 | 6.1 | 0.00 | 0.00 | 0.00 | 77 | 1021.7 |
| 20260506231239 | 56 | 203 | 5.2 | 7.0 | 0.00 | 0.00 | 0.00 | 76 | 1021.7 |
| 20260506230220 | 56 | 180 | 7.0 | 8.7 | 0.00 | 0.00 | 0.00 | 76 | 1021.8 |
| 20260506225219 | 56 | 203 | 4.3 | 7.0 | 0.00 | 0.00 | 0.00 | 76 | 1021.8 |
| 20260506224239 | 56 | 180 | 4.3 | 6.1 | 0.00 | 0.00 | 0.00 | 75 | 1021.8 |
| 20260506223219 | 57 | 203 | 7.0 | 10.4 | 0.00 | 0.00 | 0.00 | 74 | 1021.9 |
| 20260506222219 | 57 | 203 | 3.5 | 7.0 | 0.00 | 0.00 | 0.00 | 73 | 1021.8 |
| 20260506221239 | 57 | 203 | 4.3 | 7.0 | 0.00 | 0.00 | 0.00 | 73 | 1021.9 |
| 20260506220219 | 58 | 203 | 6.1 | 9.6 | 0.00 | 0.00 | 0.00 | 72 | 1021.9 |
| 20260506215219 | 57 | 203 | 4.3 | 7.8 | 0.00 | 0.00 | 0.00 | 72 | 1021.9 |
| 20260506214219 | 57 | 225 | 5.2 | 7.8 | 0.00 | 0.00 | 0.00 | 72 | 1021.9 |
| 20260506213219 | 58 | 203 | 5.2 | 7.8 | 0.00 | 0.00 | 0.00 | 72 | 1021.9 |
| 20260506212220 | 58 | 203 | 4.3 | 7.8 | 0.00 | 0.00 | 0.00 | 71 | 1022.0 |
| 20260506211239 | 58 | 203 | 3.5 | 5.2 | 0.00 | 0.00 | 0.00 | 72 | 1022.1 |
| 20260506210219 | 58 | 158 | 1.7 | 3.5 | 0.00 | 0.00 | 0.00 | 72 | 1021.9 |
| 20260506205219 | 58 | 203 | 4.3 | 7.0 | 0.00 | 0.00 | 0.00 | 72 | 1021.9 |
| 20260506204219 | 58 | 225 | 5.2 | 7.8 | 0.00 | 0.00 | 0.00 | 71 | 1021.8 |
| 20260506203219 | 57 | 203 | 4.3 | 8.7 | 0.00 | 0.00 | 0.00 | 74 | 1021.8 |
| 20260506202220 | 57 | 180 | 5.2 | 9.6 | 0.00 | 0.00 | 0.00 | 73 | 1021.8 |
| 20260506201219 | 57 | 180 | 4.3 | 7.0 | 0.00 | 0.00 | 0.00 | 74 | 1021.8 |
| 20260506200219 | 57 | 203 | 5.2 | 8.7 | 0.00 | 0.00 | 0.00 | 74 | 1021.8 |
| 20260506195219 | 57 | 158 | 4.3 | 10.4 | 0.00 | 0.00 | 0.00 | 76 | 1021.7 |
| 20260506194219 | 56 | 180 | 4.3 | 7.8 | 0.00 | 0.00 | 0.00 | 77 | 1021.6 |
| 20260506193219 | 56 | 203 | 3.5 | 13.0 | 0.00 | 0.00 | 0.00 | 76 | 1021.7 |
| 20260506192259 | 55 | 158 | 4.3 | 7.8 | 0.00 | 0.00 | 0.00 | 77 | 1021.6 |
| 20260506191219 | 55 | 135 | 4.3 | 10.4 | 0.00 | 0.00 | 0.00 | 79 | 1021.7 |
| 20260506190219 | 55 | 203 | 4.3 | 7.8 | 0.00 | 0.00 | 0.00 | 80 | 1021.5 |
| 20260506185219 | 54 | 180 | 3.5 | 7.0 | 0.00 | 0.00 | 0.00 | 80 | 1021.6 |
| 20260506184218 | 54 | 203 | 6.1 | 8.7 | 0.00 | 0.00 | 0.00 | 81 | 1021.6 |
| 20260506183219 | 54 | 225 | 2.6 | 4.3 | 0.00 | 0.00 | 0.00 | 82 | 1021.6 |
| 20260506182219 | 54 | 203 | 2.6 | 7.0 | 0.00 | 0.00 | 0.00 | 84 | 1021.5 |
| 20260506181219 | 53 | 203 | 7.0 | 7.8 | 0.00 | 0.00 | 0.00 | 84 | 1021.7 |
| 20260506180218 | 54 | 248 | 3.5 | 7.0 | 0.00 | 0.00 | 0.00 | 84 | 1021.7 |
| 20260506175219 | 54 | 180 | 3.5 | 6.1 | 0.00 | 0.00 | 0.00 | 85 | 1021.2 |
| 20260506174219 | 54 | 203 | 4.3 | 7.8 | 0.00 | 0.00 | 0.00 | 86 | 1021.1 |
| 20260506173219 | 53 | 158 | 3.5 | 6.1 | 0.00 | 0.00 | 0.00 | 87 | 1021.2 |
| 20260506172259 | 53 | 135 | 3.5 | 4.3 | 0.00 | 0.00 | 0.00 | 87 | 1021.4 |
| 20260506171219 | 53 | 158 | 6.1 | 8.7 | 0.00 | 0.00 | 0.00 | 86 | 1021.3 |
| 20260506170219 | 53 | 203 | 3.5 | 7.0 | 0.00 | 0.00 | 0.00 | 86 | 1021.4 |
| 20260506165239 | 53 | 203 | 4.3 | 7.0 | 0.00 | 0.00 | 0.00 | 87 | 1021.4 |
| 20260506164218 | 53 | 180 | 3.5 | 6.1 | 0.00 | 0.00 | 0.00 | 87 | 1021.2 |
| 20260506163219 | 52 | 203 | 2.6 | 3.5 | 0.00 | 0.00 | 0.00 | 87 | 1021.3 |
| 20260506162219 | 52 | 203 | 4.3 | 5.2 | 0.00 | 0.00 | 0.00 | 88 | 1021.1 |
| 20260506161221 | 52 | 158 | 4.3 | 8.7 | 0.00 | 0.00 | 0.00 | 90 | 1021.0 |
| 20260506160218 | 52 | 180 | 7.0 | 7.8 | 0.00 | 0.00 | 0.00 | 91 | 1020.8 |
| 20260506155219 | 51 | 203 | 5.2 | 8.7 | 0.00 | 0.00 | 0.00 | 91 | 1020.7 |
| 20260506154219 | 51 | 203 | 3.5 | 5.2 | 0.00 | 0.00 | 0.00 | 91 | 1020.8 |
| 20260506153221 | 51 | 180 | 1.7 | 3.5 | 0.00 | 0.00 | 0.00 | 91 | 1020.9 |
| 20260506152219 | 51 | 203 | 4.3 | 7.0 | 0.00 | 0.00 | 0.00 | 91 | 1021.0 |
| 20260506151218 | 51 | 225 | 2.6 | 4.3 | 0.00 | 0.00 | 0.00 | 91 | 1021.1 |
| 20260506150219 | 51 | 203 | 2.6 | 4.3 | 0.00 | 0.00 | 0.00 | 91 | 1020.9 |
| 20260506145218 | 51 | 203 | 3.5 | 6.1 | 0.00 | 0.00 | 0.00 | 90 | 1020.6 |
| 20260506144219 | 51 | 203 | 5.2 | 7.0 | 0.00 | 0.00 | 0.00 | 90 | 1020.8 |
| 20260506143219 | 51 | 180 | 3.5 | 5.2 | 0.00 | 0.00 | 0.00 | 90 | 1020.8 |
| 20260506142218 | 51 | 180 | 2.6 | 4.3 | 0.00 | 0.00 | 0.00 | 90 | 1020.9 |
| 20260506141219 | 51 | 203 | 3.5 | 5.2 | 0.00 | 0.00 | 0.00 | 89 | 1020.8 |
| 20260506140239 | 51 | 180 | 3.5 | 6.1 | 0.00 | 0.00 | 0.00 | 89 | 1020.6 |
| 20260506135219 | 51 | 180 | 2.6 | 4.3 | 0.00 | 0.00 | 0.00 | 89 | 1020.6 |
| 20260506134238 | 52 | 203 | 3.5 | 5.2 | 0.00 | 0.00 | 0.00 | 89 | 1020.7 |
| 20260506133218 | 52 | 180 | 1.7 | 3.5 | 0.00 | 0.00 | 0.00 | 89 | 1020.4 |
| 20260506132219 | 52 | 203 | 2.6 | 3.5 | 0.00 | 0.00 | 0.00 | 88 | 1021.2 |
| 20260506131218 | 52 | 203 | 3.5 | 6.1 | 0.00 | 0.00 | 0.00 | 88 | 1020.5 |
| 20260506130219 | 52 | 203 | 2.6 | 5.2 | 0.00 | 0.00 | 0.00 | 87 | 1020.4 |
| 20260506125220 | 52 | 180 | 2.6 | 7.0 | 0.00 | 0.00 | 0.00 | 87 | 1019.7 |
| 20260506124221 | 52 | 203 | 2.6 | 4.3 | 0.00 | 0.00 | 0.00 | 87 | 1020.0 |
| 20260506123221 | 52 | 203 | 0.9 | 1.7 | 0.00 | 0.00 | 0.00 | 87 | 1020.0 |
| 20260506122226 | 52 | 0.0 | 0.9 | 0.00 | 0.00 | 0.00 | 87 | 1019.8 | |
| 20260506121227 | 52 | 180 | 0.9 | 1.7 | 0.00 | 0.00 | 0.00 | 87 | 1019.7 |
| 20260506120226 | 52 | 180 | 0.9 | 1.7 | 0.00 | 0.00 | 0.00 | 87 | 1019.7 |
| 20260506115226 | 52 | 203 | 2.6 | 4.3 | 0.00 | 0.00 | 0.00 | 87 | 1019.7 |
| 20260506114226 | 52 | 180 | 3.5 | 4.3 | 0.00 | 0.00 | 0.00 | 88 | 1019.6 |
| 20260506113226 | 52 | 180 | 2.6 | 3.5 | 0.00 | 0.00 | 0.00 | 88 | 1019.5 |
| 20260506112226 | 52 | 180 | 3.5 | 5.2 | 0.00 | 0.00 | 0.00 | 88 | 1019.4 |
| 20260506111226 | 52 | 180 | 2.6 | 3.5 | 0.00 | 0.00 | 0.00 | 87 | 1019.4 |
| 20260506110226 | 52 | 158 | 3.5 | 6.1 | 0.00 | 0.00 | 0.00 | 88 | 1019.4 |
| 20260506105226 | 52 | 158 | 1.7 | 3.5 | 0.00 | 0.00 | 0.00 | 87 | 1019.2 |
| 20260506104226 | 52 | 158 | 3.5 | 5.2 | 0.00 | 0.00 | 0.00 | 87 | 1019.2 |
| 20260506103226 | 52 | 180 | 1.7 | 4.3 | 0.00 | 0.00 | 0.00 | 87 | 1019.2 |
| 20260506102306 | 52 | 180 | 2.6 | 5.2 | 0.00 | 0.00 | 0.00 | 87 | 1019.2 |
| 20260506101220 | 52 | 158 | 1.7 | 4.3 | 0.00 | 0.00 | 0.00 | 87 | 1019.1 |
| 20260506100218 | 52 | 180 | 2.6 | 4.3 | 0.00 | 0.00 | 0.00 | 87 | 1019.0 |
| 20260506095219 | 52 | 180 | 5.2 | 7.8 | 0.00 | 0.00 | 0.00 | 87 | 1018.9 |
| 20260506094220 | 52 | 203 | 3.5 | 5.2 | 0.00 | 0.00 | 0.00 | 87 | 1018.7 |
| 20260506093220 | 52 | 203 | 1.7 | 4.3 | 0.00 | 0.00 | 0.00 | 86 | 1018.6 |
| 20260506092228 | 52 | 180 | 0.9 | 2.6 | 0.00 | 0.00 | 0.00 | 86 | 1018.6 |
| 20260506091228 | 52 | 180 | 2.6 | 4.3 | 0.00 | 0.00 | 0.00 | 86 | 1018.5 |
| 20260506090228 | 53 | 180 | 0.9 | 1.7 | 0.00 | 0.00 | 0.00 | 86 | 1018.4 |
| 20260506085228 | 53 | 225 | 4.3 | 5.2 | 0.00 | 0.00 | 0.00 | 85 | 1018.4 |
| 20260506084220 | 53 | 180 | 2.6 | 4.3 | 0.00 | 0.00 | 0.00 | 85 | 1018.2 |
| 20260506083220 | 53 | 180 | 2.6 | 3.5 | 0.00 | 0.00 | 0.00 | 85 | 1018.2 |
| 20260506082218 | 53 | 180 | 2.6 | 5.2 | 0.00 | 0.00 | 0.00 | 85 | 1018.1 |
| 20260506081220 | 54 | 180 | 3.5 | 5.2 | 0.00 | 0.00 | 0.00 | 85 | 1018.1 |
| 20260506080220 | 54 | 180 | 1.7 | 2.6 | 0.00 | 0.00 | 0.00 | 85 | 1018.0 |
| 20260506073219 | 54 | 180 | 0.9 | 1.7 | 0.00 | 0.00 | 0.00 | 84 | 1017.7 |